Time;durP1;ratioP1;P1;durP2;ratioP2;P2;SDS_P1;SDS_P2;PMS_P1;PMS_P2;Temp;Humidity;BMP_temperature;BMP_pressure;BME280_temperature;BME280_humidity;BME280_pressure;Samples;Min_cycle;Max_cycle;Signal;HPM_P1;HPM_P2
2021/12/29 06:43:45;;;;;;;9.80;7.20;;;;;;;;;;6208713;22;20028;-86
2021/12/29 06:46:11;;;;;;;9.88;7.20;;;;;;;;;;6248826;23;20016;-93
2021/12/29 06:48:37;;;;;;;10.25;7.05;;;;;;;;;;6247858;23;20395;-95
2021/12/29 06:51:02;;;;;;;9.82;6.75;;;;;;;;;;6248032;23;20035;-87
2021/12/29 06:53:30;;;;;;;10.45;7.78;;;;;;;;;;6247517;23;20024;-85
2021/12/29 06:55:56;;;;;;;10.57;8.25;;;;;;;;;;6234220;23;20008;-83
2021/12/29 06:58:21;;;;;;;8.90;7.07;;;;;;;;;;6248559;23;20004;-83
2021/12/29 07:00:51;;;;;;;10.90;7.28;;;;;;;;;;6249550;23;20497;-94
2021/12/29 10:31:50;;;;;;;10.13;9.23;;;;;;;;;;6214639;23;20031;-87
2021/12/29 10:34:21;;;;;;;10.25;9.25;;;;;;;;;;6216125;23;20096;-89
2021/12/29 10:37:04;;;;;;;11.10;10.10;;;;;;;;;;6191646;23;20099;-89
2021/12/29 10:39:40;;;;;;;10.95;9.18;;;;;;;;;;6216969;23;20039;-87
2021/12/29 10:42:19;;;;;;;9.07;8.20;;;;;;;;;;6217213;23;20011;-89
2021/12/29 10:44:53;;;;;;;9.32;8.43;;;;;;;;;;6217200;23;20008;-86
2021/12/29 10:47:33;;;;;;;9.43;8.43;;;;;;;;;;6217097;23;20067;-88
2021/12/29 10:50:07;;;;;;;10.27;8.32;;;;;;;;;;6190069;23;20087;-89
2021/12/29 10:52:46;;;;;;;8.63;7.82;;;;;;;;;;6217195;23;20435;-88
2021/12/29 10:55:31;;;;;;;8.27;7.47;;;;;;;;;;6190593;23;20078;-90
2021/12/29 10:58:08;;;;;;;9.82;8.82;;;;;;;;;;6216777;23;20218;-87
2021/12/29 11:00:36;;;;;;;9.68;8.70;;;;;;;;;;6190575;23;20001;-87
2021/12/29 11:03:08;;;;;;;10.05;9.05;;;;;;;;;;6190859;23;19996;-88
2021/12/29 11:05:39;;;;;;;9.38;8.40;;;;;;;;;;6191034;23;20036;-89
2021/12/29 11:08:07;;;;;;;11.18;8.90;;;;;;;;;;6190503;23;20005;-91
2021/12/29 11:10:32;;;;;;;9.13;8.27;;;;;;;;;;6217566;23;20001;-89
2021/12/29 11:12:57;;;;;;;9.10;8.02;;;;;;;;;;6217597;23;20077;-88
2021/12/29 11:15:29;;;;;;;8.50;7.70;;;;;;;;;;6216876;23;20008;-87
2021/12/29 11:17:59;;;;;;;7.93;6.97;;;;;;;;;;6191525;23;20447;-89
2021/12/29 11:20:25;;;;;;;;;;;;;;;;;;6192231;23;20080;-94
2021/12/29 11:22:51;;;;;;;7.35;6.32;;;;;;;;;;6190684;23;19995;-92
2021/12/29 11:25:28;;;;;;;7.32;6.50;;;;;;;;;;6190479;23;20075;-88
2021/12/29 11:27:53;;;;;;;5.97;5.38;;;;;;;;;;6216639;23;20481;-88
2021/12/29 11:30:20;;;;;;;5.95;5.35;;;;;;;;;;6216604;23;20075;-88
2021/12/29 11:32:46;;;;;;;6.70;6.00;;;;;;;;;;6190214;23;20343;-86
2021/12/29 11:35:14;;;;;;;6.60;5.50;;;;;;;;;;6216467;23;20066;-89
2021/12/29 11:37:47;;;;;;;6.15;5.55;;;;;;;;;;6217203;23;20000;-87
2021/12/29 11:40:16;;;;;;;7.05;6.05;;;;;;;;;;6216761;23;20059;-90
2021/12/29 11:42:42;;;;;;;7.68;6.22;;;;;;;;;;6190207;23;20008;-91
2021/12/29 11:45:09;;;;;;;5.47;4.97;;;;;;;;;;6190096;23;20055;-91
2021/12/29 11:47:35;;;;;;;6.95;4.78;;;;;;;;;;6216668;23;19996;-90
2021/12/29 11:50:02;;;;;;;6.28;5.13;;;;;;;;;;6216361;23;20127;-84
2021/12/29 11:52:44;;;;;;;6.53;5.82;;;;;;;;;;6216328;23;20000;-90
2021/12/29 11:55:20;;;;;;;6.57;5.93;;;;;;;;;;6216373;23;19996;-87
2021/12/29 11:57:46;;;;;;;12.23;9.88;;;;;;;;;;6192085;23;20092;-88
2021/12/29 12:00:21;;;;;;;15.98;12.80;;;;;;;;;;6190507;23;20004;-88
2021/12/29 12:02:51;;;;;;;20.13;16.65;;;;;;;;;;6190335;23;20324;-88
2021/12/29 12:05:22;;;;;;;;;;;;;;;;;;6216643;23;20004;-85
2021/12/29 12:07:48;;;;;;;25.95;18.73;;;;;;;;;;6216211;23;19908;-86
2021/12/29 12:10:36;;;;;;;23.52;17.63;;;;;;;;;;6216284;23;20004;-86
2021/12/29 12:13:19;;;;;;;23.10;16.75;;;;;;;;;;6216075;23;20005;-89
2021/12/29 12:15:45;;;;;;;22.33;18.33;;;;;;;;;;6216413;23;20092;-85
2021/12/29 12:18:10;;;;;;;33.25;22.02;;;;;;;;;;6217370;23;20004;-85
2021/12/29 12:20:50;;;;;;;29.05;19.20;;;;;;;;;;6216119;23;20078;-93
2021/12/29 12:23:29;;;;;;;25.90;19.38;;;;;;;;;;6216602;23;20001;-92
2021/12/29 12:26:09;;;;;;;29.88;20.88;;;;;;;;;;6216362;23;20001;-93
2021/12/29 12:28:46;;;;;;;24.70;19.00;;;;;;;;;;6216373;23;20043;-92
2021/12/29 12:31:30;;;;;;;26.05;18.35;;;;;;;;;;6216938;23;20043;-93
2021/12/29 12:34:25;;;;;;;26.00;19.05;;;;;;;;;;6219887;23;20036;-94
2021/12/29 12:36:51;;;;;;;25.92;19.00;;;;;;;;;;6185658;23;20502;-94
2021/12/29 12:39:18;;;;;;;26.83;19.98;;;;;;;;;;6190168;23;20091;-94
2021/12/29 12:41:50;;;;;;;28.42;20.20;;;;;;;;;;6190785;23;20009;-95
2021/12/29 12:44:19;;;;;;;27.70;19.92;;;;;;;;;;6217269;23;20035;-95
2021/12/29 12:46:49;;;;;;;32.13;20.27;;;;;;;;;;6216655;23;20008;-86
2021/12/29 12:49:26;;;;;;;30.45;20.95;;;;;;;;;;6216267;23;20059;-92
2021/12/29 12:52:00;;;;;;;31.08;20.80;;;;;;;;;;6191836;23;20091;-84
2021/12/29 12:54:29;;;;;;;30.05;20.85;;;;;;;;;;6224389;23;20007;-86
2021/12/29 12:56:57;;;;;;;34.63;22.13;;;;;;;;;;6216637;23;20305;-84
2021/12/29 12:59:34;;;;;;;36.83;24.83;;;;;;;;;;6216493;23;20055;-84
2021/12/29 13:02:17;;;;;;;34.55;24.13;;;;;;;;;;6216605;23;20062;-87
2021/12/29 13:05:06;;;;;;;36.05;24.88;;;;;;;;;;6215781;23;20012;-88
2021/12/29 13:07:32;;;;;;;40.33;24.83;;;;;;;;;;6216129;23;20001;-85
2021/12/29 13:09:58;;;;;;;37.03;23.75;;;;;;;;;;6216681;23;20008;-84
2021/12/29 13:12:29;;;;;;;34.75;22.58;;;;;;;;;;6216114;23;20134;-90
2021/12/29 13:15:03;;;;;;;33.15;22.13;;;;;;;;;;6189641;23;20008;-88
2021/12/29 13:17:29;;;;;;;34.92;23.20;;;;;;;;;;6215874;23;20016;-84
2021/12/29 13:19:55;;;;;;;35.40;23.63;;;;;;;;;;6216306;23;20000;-85
2021/12/29 13:22:33;;;;;;;36.92;23.73;;;;;;;;;;6216135;23;20013;-85
2021/12/29 13:25:14;;;;;;;37.35;22.88;;;;;;;;;;6216014;23;20009;-84
2021/12/29 13:27:42;;;;;;;35.90;22.88;;;;;;;;;;6216726;23;20005;-85
2021/12/29 13:30:12;;;;;;;34.55;23.05;;;;;;;;;;6216131;23;20009;-84
2021/12/29 13:32:48;;;;;;;35.60;23.45;;;;;;;;;;6215828;23;20020;-85
2021/12/29 13:35:14;;;;;;;33.17;22.23;;;;;;;;;;6216002;23;20490;-87
2021/12/29 13:37:40;;;;;;;37.70;23.08;;;;;;;;;;6215654;23;20024;-85
2021/12/29 13:40:09;;;;;;;34.55;22.23;;;;;;;;;;6216700;23;20047;-93
2021/12/29 13:42:40;;;;;;;33.70;22.02;;;;;;;;;;6216686;23;20027;-85
2021/12/29 13:45:06;;;;;;;33.58;21.52;;;;;;;;;;6215942;23;20083;-85
2021/12/29 13:47:32;;;;;;;33.30;22.25;;;;;;;;;;6189287;23;20007;-85
2021/12/29 13:50:10;;;;;;;29.73;20.80;;;;;;;;;;6216427;23;20004;-86
2021/12/29 13:52:35;;;;;;;35.45;24.08;;;;;;;;;;6217641;23;20001;-86
2021/12/29 13:55:01;;;;;;;35.70;23.33;;;;;;;;;;6217988;23;20004;-87
2021/12/29 13:57:26;;;;;;;38.33;24.45;;;;;;;;;;6219067;23;20005;-85
2021/12/29 13:59:52;;;;;;;34.53;22.73;;;;;;;;;;6218277;23;20517;-84
2021/12/29 14:02:17;;;;;;;37.08;25.02;;;;;;;;;;6218553;23;20005;-84
2021/12/29 14:04:44;;;;;;;34.22;22.67;;;;;;;;;;6217965;23;20050;-86
2021/12/29 14:07:12;;;;;;;34.83;23.98;;;;;;;;;;6218709;23;20103;-85
2021/12/29 14:09:39;;;;;;;34.10;22.02;;;;;;;;;;6217231;23;20005;-89
2021/12/29 14:12:12;;;;;;;34.60;22.50;;;;;;;;;;6218411;23;20332;-85
2021/12/29 14:14:38;;;;;;;32.35;21.30;;;;;;;;;;6218474;23;20047;-85
2021/12/29 14:17:05;;;;;;;31.23;21.35;;;;;;;;;;6217422;23;20009;-87
2021/12/29 14:19:32;;;;;;;31.02;20.77;;;;;;;;;;6217662;23;20080;-85
2021/12/29 14:21:58;;;;;;;30.70;21.13;;;;;;;;;;6190923;23;20012;-85
2021/12/29 14:24:25;;;;;;;33.53;21.05;;;;;;;;;;6190579;23;20327;-94
2021/12/29 14:26:56;;;;;;;34.03;21.00;;;;;;;;;;6218048;23;20379;-85
2021/12/29 14:29:31;;;;;;;30.45;20.27;;;;;;;;;;6191866;23;20012;-84
2021/12/29 14:31:57;;;;;;;30.10;20.33;;;;;;;;;;6218540;23;20063;-85
2021/12/29 14:34:36;;;;;;;30.02;20.08;;;;;;;;;;6217619;23;20367;-92
2021/12/29 14:37:08;;;;;;;31.05;20.15;;;;;;;;;;6219151;23;20001;-85
2021/12/29 14:39:34;;;;;;;27.17;18.80;;;;;;;;;;6217828;23;20000;-84
2021/12/29 14:42:05;;;;;;;27.33;18.42;;;;;;;;;;6217166;23;20004;-86
2021/12/29 14:44:31;;;;;;;31.15;19.83;;;;;;;;;;6217216;23;20104;-85
2021/12/29 14:46:59;;;;;;;30.20;20.38;;;;;;;;;;6217045;23;19997;-85
2021/12/29 14:49:55;;;;;;;28.63;19.50;;;;;;;;;;6216783;23;20032;-95
2021/12/29 14:52:21;;;;;;;27.33;18.23;;;;;;;;;;6214641;23;20055;-94
2021/12/29 14:54:50;;;;;;;29.92;18.88;;;;;;;;;;6219258;23;20004;-84
2021/12/29 14:57:19;;;;;;;26.58;18.50;;;;;;;;;;6192709;23;20075;-88
2021/12/29 14:59:45;;;;;;;27.58;18.45;;;;;;;;;;6217950;23;20408;-96
2021/12/29 15:02:25;;;;;;;20.73;14.85;;;;;;;;;;6218836;23;20008;-95
2021/12/29 15:05:04;;;;;;;20.33;14.27;;;;;;;;;;6219646;23;20007;-94
2021/12/29 15:07:31;;;;;;;21.00;15.18;;;;;;;;;;6218730;23;20005;-93
2021/12/29 15:10:21;;;;;;;21.33;15.52;;;;;;;;;;6218209;23;20008;-95
2021/12/29 15:12:50;;;;;;;20.75;13.77;;;;;;;;;;6218306;23;20004;-90
2021/12/29 15:15:32;;;;;;;12.30;8.98;;;;;;;;;;6218489;23;20001;-95
2021/12/29 15:18:03;;;;;;;9.65;7.18;;;;;;;;;;6192613;23;20088;-95
2021/12/29 15:20:33;;;;;;;11.70;8.25;;;;;;;;;;6218836;23;20011;-96
2021/12/29 15:22:59;;;;;;;17.05;13.25;;;;;;;;;;6219373;23;20072;-95
2021/12/29 15:25:25;;;;;;;15.88;11.43;;;;;;;;;;6219589;23;20001;-92
2021/12/29 15:28:02;;;;;;;16.05;11.55;;;;;;;;;;6193247;23;20314;-95
2021/12/29 15:30:32;;;;;;;29.15;18.02;;;;;;;;;;6220354;23;20059;-94
2021/12/29 15:32:59;;;;;;;23.15;15.70;;;;;;;;;;6187805;23;20021;-94
2021/12/29 15:35:25;;;;;;;18.20;11.73;;;;;;;;;;6188859;23;20005;-93
2021/12/29 15:37:51;;;;;;;13.80;10.00;;;;;;;;;;6188026;23;20028;-95
2021/12/29 15:40:17;;;;;;;21.83;14.32;;;;;;;;;;6186706;23;20005;-86
2021/12/29 15:42:43;;;;;;;19.63;12.68;;;;;;;;;;6186963;23;20310;-87
2021/12/29 15:45:12;;;;;;;39.38;24.48;;;;;;;;;;6186702;23;20005;-87
2021/12/29 15:47:39;;;;;;;34.57;20.30;;;;;;;;;;6186573;23;19998;-85
2021/12/29 15:50:06;;;;;;;20.63;13.57;;;;;;;;;;6186815;23;20091;-86
2021/12/29 15:52:32;;;;;;;22.50;14.30;;;;;;;;;;6186534;23;20490;-86
2021/12/29 15:54:58;;;;;;;25.25;15.43;;;;;;;;;;6186640;23;20028;-85
2021/12/29 15:57:25;;;;;;;24.45;15.07;;;;;;;;;;6186497;23;20004;-85
2021/12/29 15:59:51;;;;;;;21.77;15.13;;;;;;;;;;6186404;23;20004;-86
2021/12/29 16:02:16;;;;;;;21.23;14.63;;;;;;;;;;6186556;23;20059;-85
2021/12/29 16:04:42;;;;;;;26.10;16.80;;;;;;;;;;6186401;23;20391;-84
2021/12/29 16:07:09;;;;;;;29.00;17.48;;;;;;;;;;6184897;23;20009;-86
2021/12/29 16:09:35;;;;;;;25.80;17.90;;;;;;;;;;6186296;23;20421;-86
2021/12/29 16:12:00;;;;;;;24.30;16.63;;;;;;;;;;6187862;23;20012;-95
2021/12/29 16:14:26;;;;;;;12.60;8.45;;;;;;;;;;6187280;23;20008;-92
2021/12/29 16:16:51;;;;;;;15.05;9.38;;;;;;;;;;6188633;23;20013;-94
2021/12/29 16:19:17;;;;;;;21.33;13.95;;;;;;;;;;6188647;23;20030;-94
2021/12/29 16:21:43;;;;;;;16.33;11.23;;;;;;;;;;6188134;23;20001;-93
2021/12/29 16:24:09;;;;;;;16.45;11.65;;;;;;;;;;6187631;23;20369;-96
2021/12/29 16:26:36;;;;;;;18.27;12.43;;;;;;;;;;6189534;23;20013;-94
2021/12/29 16:29:03;;;;;;;18.02;12.65;;;;;;;;;;6190834;23;20062;-95
2021/12/29 16:31:30;;;;;;;19.10;12.63;;;;;;;;;;6193195;23;20016;-96
2021/12/29 16:33:58;;;;;;;18.40;12.18;;;;;;;;;;6224088;23;20017;-94
2021/12/29 16:36:23;;;;;;;21.08;14.68;;;;;;;;;;6218608;23;20012;-95
2021/12/29 16:38:50;;;;;;;20.73;13.70;;;;;;;;;;6217457;23;20009;-90
2021/12/29 16:41:16;;;;;;;24.58;16.30;;;;;;;;;;6217143;23;20067;-96
2021/12/29 16:43:41;;;;;;;21.88;15.90;;;;;;;;;;6166166;23;20313;-93
2021/12/29 16:46:07;;;;;;;24.85;18.48;;;;;;;;;;6217295;23;20474;-91
2021/12/29 16:48:33;;;;;;;21.98;14.48;;;;;;;;;;6218007;23;20028;-93
2021/12/29 16:50:59;;;;;;;26.27;17.83;;;;;;;;;;6217668;23;20058;-92
2021/12/29 16:53:24;;;;;;;23.33;15.40;;;;;;;;;;6217900;23;20004;-94
2021/12/29 16:55:51;;;;;;;15.77;11.70;;;;;;;;;;6219409;23;20435;-96
2021/12/29 16:58:18;;;;;;;34.97;17.85;;;;;;;;;;6192756;23;20009;-96
2021/12/29 17:00:44;;;;;;;27.35;16.63;;;;;;;;;;6218366;23;20005;-95
2021/12/29 17:03:09;;;;;;;38.42;22.58;;;;;;;;;;6221262;23;20012;-88
2021/12/29 17:05:35;;;;;;;36.65;23.80;;;;;;;;;;6192237;23;20005;-91
2021/12/29 17:08:02;;;;;;;37.80;24.90;;;;;;;;;;6221034;23;20004;-95
2021/12/29 17:10:28;;;;;;;33.55;21.27;;;;;;;;;;6193938;23;20328;-96
2021/12/29 17:12:54;;;;;;;35.28;23.15;;;;;;;;;;6218868;23;20011;-96
2021/12/29 17:15:20;;;;;;;34.15;19.80;;;;;;;;;;6218123;23;20009;-94
2021/12/29 17:17:45;;;;;;;25.73;15.43;;;;;;;;;;6218005;23;20007;-94
2021/12/29 17:20:11;;;;;;;21.08;14.15;;;;;;;;;;6219440;23;20005;-92
2021/12/29 17:22:37;;;;;;;21.85;14.38;;;;;;;;;;6192496;23;20436;-94
2021/12/29 17:25:05;;;;;;;23.33;14.07;;;;;;;;;;6220091;23;20001;-96
2021/12/29 17:27:30;;;;;;;21.77;14.27;;;;;;;;;;6220575;23;20001;-94
2021/12/29 17:29:56;;;;;;;25.70;16.15;;;;;;;;;;6220501;23;20015;-95
2021/12/29 17:32:22;;;;;;;22.15;15.05;;;;;;;;;;6220200;23;20088;-91
2021/12/29 17:34:47;;;;;;;21.30;15.05;;;;;;;;;;6193830;23;20404;-91
2021/12/29 17:37:13;;;;;;;23.80;15.57;;;;;;;;;;6221003;23;19996;-93
2021/12/29 17:39:39;;;;;;;30.05;19.50;;;;;;;;;;6223656;23;20424;-93
2021/12/29 17:42:04;;;;;;;30.92;16.67;;;;;;;;;;6195536;23;20031;-94
2021/12/29 17:44:30;;;;;;;24.33;16.05;;;;;;;;;;6220585;23;19996;-93
2021/12/29 17:46:56;;;;;;;28.35;17.58;;;;;;;;;;6222611;23;20060;-95
2021/12/29 17:51:57;;;;;;;25.45;18.10;;;;;;;;;;6189524;23;20024;-93
2021/12/29 17:54:23;;;;;;;29.70;20.10;;;;;;;;;;6188729;23;20037;-93
2021/12/29 17:56:48;;;;;;;41.00;32.22;;;;;;;;;;6172436;23;20016;-84
2021/12/29 17:59:14;;;;;;;28.33;18.02;;;;;;;;;;6195801;23;20084;-92
2021/12/29 18:01:40;;;;;;;28.33;17.48;;;;;;;;;;6189156;23;20039;-88
2021/12/29 18:04:06;;;;;;;26.90;17.90;;;;;;;;;;6187381;23;20012;-85
2021/12/29 18:06:31;;;;;;;34.75;22.23;;;;;;;;;;6161144;23;20016;-86
2021/12/29 18:08:57;;;;;;;27.08;17.95;;;;;;;;;;6187151;23;20405;-89
2021/12/29 18:11:22;;;;;;;27.80;17.88;;;;;;;;;;6187650;23;20001;-92
2021/12/29 18:13:48;;;;;;;31.95;20.27;;;;;;;;;;6189478;23;20032;-93
2021/12/29 18:16:13;;;;;;;32.22;19.60;;;;;;;;;;6188042;23;20018;-93
2021/12/29 18:18:40;;;;;;;29.55;18.80;;;;;;;;;;6188262;23;20036;-93
2021/12/29 18:21:06;;;;;;;35.90;23.50;;;;;;;;;;6188077;23;20001;-92
2021/12/29 18:23:33;;;;;;;34.75;23.13;;;;;;;;;;6187950;23;20001;-95
2021/12/29 18:26:03;;;;;;;35.20;21.42;;;;;;;;;;6187630;23;20432;-93
2021/12/29 18:28:28;;;;;;;34.03;20.95;;;;;;;;;;6187525;23;20136;-89
2021/12/29 18:30:55;;;;;;;30.98;18.20;;;;;;;;;;6161634;23;20048;-90
2021/12/29 18:33:22;;;;;;;32.30;19.77;;;;;;;;;;6190325;23;20016;-90
2021/12/29 18:35:47;;;;;;;33.05;20.88;;;;;;;;;;6192175;23;20001;-94
2021/12/29 18:38:13;;;;;;;31.05;19.23;;;;;;;;;;6194857;23;20005;-86
2021/12/29 18:40:41;;;;;;;34.95;20.65;;;;;;;;;;6209915;23;20005;-84
2021/12/29 18:43:09;;;;;;;36.40;21.77;;;;;;;;;;6208681;23;20008;-87
2021/12/29 18:45:36;;;;;;;31.85;20.85;;;;;;;;;;6207962;23;20009;-90
2021/12/29 18:48:02;;;;;;;38.42;23.73;;;;;;;;;;6205060;23;20412;-92
2021/12/29 18:50:28;;;;;;;36.80;24.15;;;;;;;;;;6189470;23;20393;-92
2021/12/29 18:52:55;;;;;;;37.00;22.98;;;;;;;;;;6189348;23;20009;-91
2021/12/29 18:55:24;;;;;;;36.65;22.50;;;;;;;;;;6192653;23;19997;-91
2021/12/29 18:57:49;;;;;;;35.40;22.55;;;;;;;;;;6190674;23;19997;-93
2021/12/29 19:00:16;;;;;;;37.25;23.83;;;;;;;;;;6188500;23;20076;-91
2021/12/29 19:02:43;;;;;;;32.70;21.10;;;;;;;;;;6190049;23;20001;-88
2021/12/29 19:05:13;;;;;;;36.55;23.20;;;;;;;;;;6161098;23;20005;-88
2021/12/29 19:07:39;;;;;;;44.72;25.77;;;;;;;;;;6160489;23;20001;-87
2021/12/29 19:10:06;;;;;;;38.13;23.63;;;;;;;;;;6186725;23;20012;-88
2021/12/29 19:12:32;;;;;;;44.65;24.70;;;;;;;;;;6186726;23;20301;-88
2021/12/29 19:14:58;;;;;;;41.15;24.27;;;;;;;;;;6186770;23;20012;-86
2021/12/29 19:17:24;;;;;;;38.63;24.33;;;;;;;;;;6160216;23;20016;-87
2021/12/29 19:19:49;;;;;;;42.97;24.52;;;;;;;;;;6186765;23;20009;-87
2021/12/29 19:22:16;;;;;;;45.33;27.13;;;;;;;;;;6186610;23;20009;-87
2021/12/29 19:24:43;;;;;;;47.95;29.13;;;;;;;;;;6186716;23;20052;-86
2021/12/29 19:27:09;;;;;;;48.30;29.10;;;;;;;;;;6186969;23;20004;-86
2021/12/29 19:29:35;;;;;;;50.65;30.38;;;;;;;;;;6186469;23;20440;-90
2021/12/29 19:32:01;;;;;;;53.17;30.50;;;;;;;;;;6160959;23;20011;-91
2021/12/29 19:34:33;;;;;;;49.85;29.73;;;;;;;;;;6188702;23;20047;-93
2021/12/29 19:37:03;;;;;;;56.42;32.90;;;;;;;;;;6188136;23;20043;-93
2021/12/29 19:39:38;;;;;;;52.72;30.75;;;;;;;;;;6189372;23;19997;-87
2021/12/29 19:42:07;;;;;;;54.80;31.00;;;;;;;;;;6164384;23;20132;-89
2021/12/29 19:44:33;;;;;;;51.43;29.47;;;;;;;;;;6187927;23;19997;-90
2021/12/29 19:46:59;;;;;;;47.70;29.75;;;;;;;;;;6186808;23;20008;-90
2021/12/29 19:49:25;;;;;;;52.65;32.20;;;;;;;;;;6160138;23;20451;-89
2021/12/29 19:51:51;;;;;;;52.95;29.75;;;;;;;;;;6186977;23;20001;-90
2021/12/29 19:54:19;;;;;;;49.83;29.20;;;;;;;;;;6192127;23;20032;-95
2021/12/29 19:56:45;;;;;;;52.38;30.05;;;;;;;;;;6190698;23;20012;-92
2021/12/29 19:59:11;;;;;;;50.22;30.00;;;;;;;;;;6191276;23;20001;-95
2021/12/29 20:01:41;;;;;;;50.42;29.15;;;;;;;;;;6193152;23;20005;-94
2021/12/29 20:04:07;;;;;;;45.47;25.23;;;;;;;;;;6188365;23;20005;-94
2021/12/29 20:06:34;;;;;;;53.63;30.27;;;;;;;;;;6190712;23;20012;-93
2021/12/29 20:08:59;;;;;;;33.78;21.40;;;;;;;;;;6188724;23;20413;-94
2021/12/29 20:11:25;;;;;;;38.67;24.48;;;;;;;;;;6189045;23;20024;-88
2021/12/29 20:13:51;;;;;;;44.80;26.23;;;;;;;;;;6187078;23;20003;-92
2021/12/29 20:16:19;;;;;;;38.17;22.40;;;;;;;;;;6187782;23;20005;-95
2021/12/29 20:18:44;;;;;;;34.65;20.58;;;;;;;;;;6161289;23;20012;-89
2021/12/29 20:21:14;;;;;;;33.35;19.80;;;;;;;;;;6187516;23;20009;-91
2021/12/29 20:23:39;;;;;;;31.73;19.98;;;;;;;;;;6186814;23;20055;-88
2021/12/29 20:26:05;;;;;;;34.20;21.88;;;;;;;;;;6186976;23;19997;-92
2021/12/29 20:28:31;;;;;;;36.30;21.23;;;;;;;;;;6186467;23;20055;-91
2021/12/29 20:30:57;;;;;;;32.08;19.80;;;;;;;;;;6186845;23;20033;-90
2021/12/29 20:33:23;;;;;;;35.92;20.55;;;;;;;;;;6186627;23;20413;-92
2021/12/29 20:35:50;;;;;;;31.20;19.95;;;;;;;;;;6186740;23;20005;-90
2021/12/29 20:38:16;;;;;;;30.00;19.40;;;;;;;;;;6186938;23;19998;-92
2021/12/29 20:40:41;;;;;;;30.60;19.65;;;;;;;;;;6186964;23;20013;-92
2021/12/29 20:43:07;;;;;;;41.33;25.17;;;;;;;;;;6186927;23;20032;-93
2021/12/29 20:45:33;;;;;;;35.70;21.65;;;;;;;;;;6186859;23;20011;-91
2021/12/29 20:47:58;;;;;;;34.17;20.83;;;;;;;;;;6186935;23;20009;-92
2021/12/29 20:50:25;;;;;;;32.42;20.90;;;;;;;;;;6160197;23;20021;-90
2021/12/29 20:52:51;;;;;;;32.03;20.30;;;;;;;;;;6186874;23;20095;-91
2021/12/29 20:55:20;;;;;;;34.72;22.30;;;;;;;;;;6160305;23;20036;-91
2021/12/29 20:57:46;;;;;;;33.60;20.52;;;;;;;;;;6186506;23;20005;-92
2021/12/29 21:00:13;;;;;;;33.20;20.55;;;;;;;;;;6187908;23;20009;-91
2021/12/29 21:02:40;;;;;;;32.53;20.23;;;;;;;;;;6188612;23;20012;-87
2021/12/29 21:05:08;;;;;;;37.70;21.92;;;;;;;;;;6188699;23;20001;-91
2021/12/29 21:07:39;;;;;;;33.10;19.20;;;;;;;;;;6188857;23;19997;-91
2021/12/29 21:10:20;;;;;;;32.47;19.35;;;;;;;;;;6188439;23;20019;-90
2021/12/29 21:12:46;;;;;;;30.42;18.40;;;;;;;;;;6188539;23;20047;-93
2021/12/29 21:15:18;;;;;;;35.90;22.00;;;;;;;;;;6189731;23;20005;-94
2021/12/29 21:17:46;;;;;;;35.35;22.80;;;;;;;;;;6188374;23;20008;-92
2021/12/29 21:20:12;;;;;;;31.65;18.80;;;;;;;;;;6162366;23;20093;-94
2021/12/29 21:22:39;;;;;;;16.92;10.77;;;;;;;;;;6162443;23;20009;-95
2021/12/29 21:25:07;;;;;;;13.40;9.45;;;;;;;;;;6190220;23;20083;-95
2021/12/29 21:27:33;;;;;;;17.75;11.98;;;;;;;;;;6164300;23;20005;-96
2021/12/29 21:29:58;;;;;;;18.88;12.20;;;;;;;;;;6189056;23;20047;-92
2021/12/29 21:32:24;;;;;;;15.90;10.65;;;;;;;;;;6162423;23;20476;-92
2021/12/29 21:34:49;;;;;;;16.85;11.30;;;;;;;;;;6188541;23;20333;-92
2021/12/29 21:37:15;;;;;;;17.95;12.48;;;;;;;;;;6161416;23;20341;-91
2021/12/29 21:39:40;;;;;;;16.58;10.48;;;;;;;;;;6187742;23;20008;-93
2021/12/29 21:42:06;;;;;;;6.03;4.70;;;;;;;;;;6161727;23;20056;-93
2021/12/29 21:44:32;;;;;;;7.68;6.15;;;;;;;;;;6162192;23;20013;-94
2021/12/29 21:46:57;;;;;;;23.15;15.73;;;;;;;;;;6188615;23;20007;-94
2021/12/29 21:49:23;;;;;;;14.98;10.50;;;;;;;;;;6188065;23;20008;-91
2021/12/29 21:51:50;;;;;;;5.22;4.13;;;;;;;;;;6187939;23;20013;-93
2021/12/29 21:54:16;;;;;;;13.45;8.68;;;;;;;;;;6162029;23;20013;-94
2021/12/29 21:56:41;;;;;;;23.15;14.10;;;;;;;;;;6188313;23;20075;-91
2021/12/29 21:59:07;;;;;;;18.88;12.70;;;;;;;;;;6188021;23;20313;-94
2021/12/29 22:01:32;;;;;;;22.60;13.02;;;;;;;;;;6188155;23;20471;-94
2021/12/29 22:03:58;;;;;;;95.63;48.70;;;;;;;;;;6187915;23;20440;-94
2021/12/29 22:06:23;;;;;;;30.25;18.67;;;;;;;;;;6188009;23;20041;-94
2021/12/29 22:08:49;;;;;;;47.75;24.50;;;;;;;;;;6187923;23;20005;-93
2021/12/29 22:11:15;;;;;;;215.85;95.68;;;;;;;;;;6161726;23;20005;-93
2021/12/29 22:13:41;;;;;;;302.70;145.77;;;;;;;;;;6188061;23;19997;-92
